createdAt,value
2019-05-09T20:33:23.094Z,41.10
2019-05-09T20:35:54.375Z,40.55
2019-05-09T20:38:25.629Z,42.48
2019-05-09T20:40:57.076Z,39.67
2019-05-09T20:43:28.614Z,39.50
2019-05-09T20:46:00.037Z,37.13
2019-05-09T20:48:31.855Z,38.95
2019-05-09T20:51:03.076Z,46.10
2019-05-09T20:53:34.705Z,44.23
2019-05-09T20:56:07.277Z,43.23
2019-05-09T20:58:38.549Z,48.75
2019-05-09T21:01:09.834Z,39.30
2019-05-09T21:03:41.168Z,41.77
2019-05-09T21:06:12.724Z,43.08
2019-05-09T21:08:44.022Z,43.92
2019-05-09T21:11:15.232Z,41.88
2019-05-09T21:13:48.796Z,40.35
2019-05-09T21:16:19.686Z,36.42
2019-05-09T21:18:51.121Z,48.02
2019-05-09T21:21:22.707Z,44.70
2019-05-09T21:23:54.101Z,38.05
2019-05-09T21:26:25.329Z,41.98
2019-05-09T21:28:56.529Z,43.15
2019-05-09T21:31:27.951Z,44.07
2019-05-09T21:33:59.218Z,41.02
2019-05-09T21:36:30.439Z,49.30
2019-05-09T21:39:01.535Z,55.33
2019-05-09T21:41:32.702Z,51.37
2019-05-09T21:44:03.921Z,43.02
2019-05-09T21:46:35.215Z,44.67
2019-05-09T21:49:06.627Z,45.85
2019-05-09T21:51:37.743Z,50.58
2019-05-09T21:54:08.886Z,52.35
2019-05-09T21:56:39.947Z,48.35
2019-05-09T21:59:11.303Z,51.73
2019-05-09T22:01:42.725Z,58.98
2019-05-09T22:04:13.814Z,49.73
2019-05-09T22:06:44.983Z,48.30
2019-05-09T22:09:16.040Z,54.23
2019-05-09T22:11:47.321Z,51.83
2019-05-09T22:14:18.543Z,52.75
2019-05-09T22:16:49.877Z,52.03
2019-05-09T22:19:21.258Z,55.45
2019-05-09T22:21:52.260Z,48.92
2019-05-09T22:24:23.469Z,50.83
2019-05-09T22:26:54.989Z,55.08
2019-05-09T22:29:26.229Z,51.07
2019-05-09T22:31:57.777Z,55.50
2019-05-09T22:34:29.013Z,49.03
2019-05-09T22:37:00.378Z,49.93
2019-05-09T22:39:31.806Z,49.15
2019-05-09T22:42:03.215Z,57.13
2019-05-09T22:44:34.354Z,50.20
2019-05-09T22:47:05.837Z,53.20
2019-05-09T22:49:37.278Z,51.20
2019-05-09T22:52:08.283Z,54.07
2019-05-09T22:54:39.653Z,61.88
2019-05-09T22:57:10.793Z,54.38
2019-05-09T22:59:41.889Z,49.67
2019-05-09T23:02:12.964Z,52.47
2019-05-09T23:04:44.018Z,55.40
2019-05-09T23:07:15.136Z,54.40
2019-05-09T23:09:46.345Z,57.40
2019-05-09T23:12:17.385Z,55.10
2019-05-09T23:14:48.497Z,56.08
2019-05-09T23:17:19.977Z,57.13
2019-05-09T23:19:51.422Z,54.35
2019-05-09T23:22:24.430Z,50.83
2019-05-09T23:24:55.471Z,52.15
2019-05-09T23:27:26.632Z,49.47
2019-05-09T23:29:57.806Z,50.08
2019-05-09T23:32:30.815Z,51.50
2019-05-09T23:35:02.088Z,47.23
2019-05-09T23:37:33.217Z,49.42
2019-05-09T23:40:06.728Z,47.83
2019-05-09T23:42:37.972Z,47.43
2019-05-09T23:45:09.523Z,47.17
2019-05-09T23:47:40.519Z,45.55
2019-05-09T23:50:11.590Z,45.63
2019-05-09T23:52:43.288Z,42.53
2019-05-09T23:55:32.287Z,44.53
2019-05-09T23:58:21.155Z,44.33
